Flight Track Log - Related Links

Times and Time Zones

All times are in EDT time to prevent confusion due to time zone crossing. See the SWA1096 flight status page for this flight to view local times or setup timezone preferences in your user account.

Time Position Orientation Groundspeed Altitude Reporting Facility
EDT Latitude Longitude Course Direction KTS MPH feet Rate Location/Type
Mon 03:44:45 PM 39.1333 -76.6500 131° Southeast 170 196 2,000  Level Potomac TRACON
Mon 03:45:45 PM 39.1000 -76.6000 131° Southeast 198 228 5,000 2,800 Climbing Potomac TRACON
Mon 03:46:45 PM 39.1000 -76.5167 90° East 280 322 7,600 3,260 Climbing Potomac TRACON
Mon 03:48:38 PM 39.1342 -76.3247 77° East 310 357 14,400 3,225 Climbing Washington Center
Mon 03:49:38 PM 39.0908 -76.2253 119° Southeast 289 333 16,900 1,250 Climbing Washington Center
Mon 03:50:38 PM 39.0267 -76.1286 130° Southeast 313 360 16,900 700 Level Washington Center
Mon 03:51:38 PM 39.0397 -76.0272 81° East 271 312 18,300 2,350 Climbing Washington Center
Mon 03:52:38 PM 39.1192 -75.9608 33° Northeast 257 296 21,600 2,250 Climbing Washington Center
Mon 03:53:38 PM 39.1964 -75.8781 40° Northeast 307 353 22,800 700 Climbing Washington Center
Mon 03:54:38 PM 39.2758 -75.7739 45° Northeast 358 412 23,000 1,300 Climbing Washington Center
Mon 03:55:38 PM 39.3594 -75.6667 45° Northeast 394 453 25,400 2,450 Climbing Washington Center
Mon 03:56:38 PM 39.4406 -75.5619 45° Northeast 407 468 27,900 2,350 Climbing Washington Center
Mon 03:57:38 PM 39.5239 -75.4517 46° Northeast 407 468 30,100 1,850 Climbing Washington Center
Mon 03:58:38 PM 39.6069 -75.3436 45° Northeast 407 468 31,600 1,398 Climbing Washington Center
Mon 04:00:34 PM 39.7622 -75.1269 47° Northeast 445 512 34,200 1,424 Climbing New York Center
Mon 04:01:35 PM 39.8478 -75.0050 48° Northeast 455 524 35,800 1,388 Climbing New York Center
Mon 04:02:35 PM 39.9381 -74.8697 49° Northeast 455 524 37,000 600 Climbing New York Center
Mon 04:03:35 PM 40.0169 -74.7606 47° Northeast 455 524 37,000  Level New York Center
Mon 04:04:36 PM 40.1258 -74.6800 29° Northeast 434 499 37,000  Level New York Center
Mon 04:05:37 PM 40.2272 -74.6422 16° North 405 466 37,000  Level New York Center
Mon 04:06:35 PM 40.3475 -74.6000 15° North 405 466 37,000  Level New York Center
Mon 04:07:35 PM 40.4592 -74.5625 14° North 405 466 37,000  Level New York Center
Mon 04:08:36 PM 40.5683 -74.5303 13° North 400 460 37,000  Level New York Center
Mon 04:09:34 PM 40.6800 -74.4953 13° North 400 460 37,000  Level New York Center
Mon 04:10:35 PM 40.7936 -74.4578 14° North 400 460 37,000  Level New York Center
Mon 04:11:36 PM 40.9072 -74.4200 14° North 400 460 37,000  Level New York Center
Mon 04:14:01 PM 41.1714 -74.3372 13° North 404 465 37,000  Level Boston Center
Mon 04:15:01 PM 41.2806 -74.2992 15° North 409 471 37,000  Level Boston Center
Mon 04:16:02 PM 41.4064 -74.2556 15° North 409 471 37,000 -492 Level Boston Center
Mon 04:17:03 PM 41.5153 -74.2200 14° North 409 471 36,000 -1,412 Descending Boston Center
Mon 04:18:01 PM 41.6136 -74.1922 12° North 409 471 34,200 -1,815 Descending Boston Center
Mon 04:19:02 PM 41.7206 -74.1561 14° North 395 455 32,400 -1,475 Descending Boston Center
Mon 04:20:03 PM 41.8231 -74.1200 15° North 388 447 31,200 -689 Descending Boston Center
Mon 04:21:04 PM 41.9239 -74.0669 21° North 388 447 31,000 -407 Descending Boston Center
Mon 04:22:01 PM 42.0025 -73.9542 47° Northeast 389 448 30,400 -814 Descending Boston Center
Mon 04:23:02 PM 42.0914 -73.8558 39° Northeast 402 463 29,400 -1,686 Descending Boston Center
Mon 04:24:02 PM 42.1739 -73.7539 42° Northeast 402 463 27,000 -1,785 Descending Boston Center
Mon 04:25:03 PM 42.2628 -73.6492 41° Northeast 414 476 25,800 -1,279 Descending Boston Center
Mon 04:26:04 PM 42.3406 -73.5608 40° Northeast 398 458 24,400 -1,729 Descending Boston Center
Mon 04:27:01 PM 42.4208 -73.4667 41° Northeast 376 433 22,400 -2,051 Descending Boston Center
Mon 04:28:01 PM 42.5050 -73.3667 41° Northeast 376 433 20,400 -1,636 Descending Boston Center
Mon 04:29:02 PM 42.5744 -73.2689 46° Northeast 376 433 19,100 -689 Descending Boston Center
Mon 04:30:03 PM 42.6108 -73.1369 69° East 338 389 19,000 -50 Descending Boston Center
Mon 04:31:01 PM 42.6367 -73.0158 74° East 362 417 19,000  Level Boston Center
Mon 04:32:02 PM 42.6728 -72.8636 72° East 368 423 19,000 -149 Level Boston Center
Mon 04:33:02 PM 42.7022 -72.7283 73° East 368 423 18,700 -595 Descending Boston Center
Mon 04:34:03 PM 42.7294 -72.6011 74° East 368 423 17,800 -1,328 Descending Boston Center
Mon 04:35:04 PM 42.7567 -72.4711 74° East 357 411 16,000 -1,815 Descending Boston Center
Mon 04:36:02 PM 42.7839 -72.3467 73° East 357 411 14,200 -1,714 Descending Boston Center
Mon 04:37:03 PM 42.8003 -72.2222 80° East 344 396 12,600 -1,736 Descending Boston Center
Mon 04:38:03 PM 42.8125 -72.0975 82° East 330 380 10,700 -1,438 Descending Boston Center
Mon 04:39:04 PM 42.8558 -71.9983 59° Northeast 308 354 9,700 -1,424 Descending Boston Center
Mon 04:40:01 PM 42.8972 -71.9044 59° Northeast 293 337 7,900 -1,729 Descending Boston Center
Mon 04:41:02 PM 42.9383 -71.8133 58° Northeast 287 330 6,300 -1,587 Descending Boston Center
Mon 04:42:02 PM 42.9817 -71.7278 55° Northeast 280 322 4,700 -1,550 Descending Boston Center
Mon 04:43:02 PM 43.0144 -71.6364 64° Northeast 275 316 3,200 -1,091 Descending Boston Center
Mon 04:44:03 PM 43.0325 -71.5539 73° East 258 297 2,500 -632 Descending Boston Center
Mon 04:45:15 PM 43.0153 -71.4831 108° East 163 188 1,800 -692 Descending Boston Center
Mon 04:46:13 PM 42.9778 -71.4611 157° South 143 165 1,000 -763 Descending Boston Center
Mon 04:47:13 PM 42.9464 -71.4444 159° South 133 153 300 4,000 Descending Boston Center
Mon 04:48:13 PM 42.9064 -71.4197 156° South 133 153 9,000 4,279 Climbing Boston Center
Mon 04:49:15 PM 42.8686 -71.3975 157° South 133 153 9,000  Level Boston Center
Mon 04:50:15 PM 42.8331 -71.3783 158° South 133 153 9,000  Level Boston Center
Mon 04:51:15 PM 42.7953 -71.3564 157° South 133 153 9,000  Level Boston Center
Mon 04:53:00 PM 42.9167 -71.4333 316° Northwest  Level FlightAware Approximate
Mon 05:00:00 PM 42.9328 -71.4358 316° Northwest  Level Estimated
Mon 05:01:00 PM 42.9328 -71.4358 316° Northwest  Level Estimated
Mon 05:02:00 PM 42.9328 -71.4358 316° Northwest  Level Estimated
Mon 05:03:00 PM 42.9328 -71.4358 316° Northwest  Level Estimated
Mon 05:04:00 PM 42.9328 -71.4358 316° Northwest  Level Estimated

Login

Don't have an account? Register now (free) for customized features, flight alerts, and more!